Urb Nazario, Puerto Rico
Current Conditions -  °F | °C
As of 3:56 AM on Saturday 22 Nov 2014 (Local Time) from TJSJ Reporting Station
Light Rain Light Rain  
Wind Chill: 76°   Ceiling: 5000
Heat Index: 76°   Visibility: 10mi
Dew Point: 75°   Wind: 6mph
Humidity: 97%   Direction: 80°E
Pressure: 29.97"   Gusts: NA
Location:  18.2361°N, 66.0369°W
Report Text: TJSJ 220756Z 08005KT 10SM -RA FEW016 SCT027 BKN050 24/24 A2997 RMK AO2 RAE01B51 SLP146 P0002 T02440239
Loading
Personal Weather Stations






























Interactive Weather Map New forecast layout! Learn more

10-Day Weather Forecast

Advertisements
Track Severe Weather on mobile